sensor_id;sensor_type;location;lat;lon;timestamp;P1;P2;P0
38288;PMS5003;24092;53.370;-6.588;2023-05-07T00:01:39;4;3;
38288;PMS5003;24092;53.370;-6.588;2023-05-07T00:04:07;6;6;
38288;PMS5003;24092;53.370;-6.588;2023-05-07T00:06:34;6;4;
38288;PMS5003;24092;53.370;-6.588;2023-05-07T00:09:02;4;4;
38288;PMS5003;24092;53.370;-6.588;2023-05-07T00:11:29;5;4;
38288;PMS5003;24092;53.370;-6.588;2023-05-07T00:13:57;7;6;
38288;PMS5003;24092;53.370;-6.588;2023-05-07T00:16:24;5;4;
38288;PMS5003;24092;53.370;-6.588;2023-05-07T00:18:51;5;5;
38288;PMS5003;24092;53.370;-6.588;2023-05-07T00:21:18;5;4;
38288;PMS5003;24092;53.370;-6.588;2023-05-07T00:23:45;5;4;
38288;PMS5003;24092;53.370;-6.588;2023-05-07T00:26:12;5;5;
38288;PMS5003;24092;53.370;-6.588;2023-05-07T00:28:39;7;5;
38288;PMS5003;24092;53.370;-6.588;2023-05-07T00:31:07;7;4;
38288;PMS5003;24092;53.370;-6.588;2023-05-07T00:33:34;6;5;
38288;PMS5003;24092;53.370;-6.588;2023-05-07T00:36:01;6;5;
38288;PMS5003;24092;53.370;-6.588;2023-05-07T00:38:29;10;7;
38288;PMS5003;24092;53.370;-6.588;2023-05-07T00:40:56;4;4;
38288;PMS5003;24092;53.370;-6.588;2023-05-07T00:43:22;4;3;
38288;PMS5003;24092;53.370;-6.588;2023-05-07T00:45:49;5;5;
38288;PMS5003;24092;53.370;-6.588;2023-05-07T00:48:17;5;5;
38288;PMS5003;24092;53.370;-6.588;2023-05-07T00:50:45;7;5;
38288;PMS5003;24092;53.370;-6.588;2023-05-07T00:53:12;5;3;
38288;PMS5003;24092;53.370;-6.588;2023-05-07T00:55:40;5;5;
38288;PMS5003;24092;53.370;-6.588;2023-05-07T00:58:08;6;6;
38288;PMS5003;24092;53.370;-6.588;2023-05-07T01:00:35;5;4;
38288;PMS5003;24092;53.370;-6.588;2023-05-07T01:03:02;5;5;
38288;PMS5003;24092;53.370;-6.588;2023-05-07T01:05:29;7;5;
38288;PMS5003;24092;53.370;-6.588;2023-05-07T01:07:57;6;5;
38288;PMS5003;24092;53.370;-6.588;2023-05-07T01:10:25;5;4;
38288;PMS5003;24092;53.370;-6.588;2023-05-07T01:12:52;5;3;
38288;PMS5003;24092;53.370;-6.588;2023-05-07T01:15:20;4;4;
38288;PMS5003;24092;53.370;-6.588;2023-05-07T01:17:48;11;7;
38288;PMS5003;24092;53.370;-6.588;2023-05-07T01:20:15;6;5;
38288;PMS5003;24092;53.370;-6.588;2023-05-07T01:22:44;7;5;
38288;PMS5003;24092;53.370;-6.588;2023-05-07T01:25:11;11;9;
38288;PMS5003;24092;53.370;-6.588;2023-05-07T01:27:38;6;5;
38288;PMS5003;24092;53.370;-6.588;2023-05-07T01:30:06;5;4;
38288;PMS5003;24092;53.370;-6.588;2023-05-07T01:32:35;5;4;
38288;PMS5003;24092;53.370;-6.588;2023-05-07T01:35:11;4;4;
38288;PMS5003;24092;53.370;-6.588;2023-05-07T01:37:40;6;5;
38288;PMS5003;24092;53.370;-6.588;2023-05-07T01:40:08;7;6;
38288;PMS5003;24092;53.370;-6.588;2023-05-07T01:42:36;5;4;
38288;PMS5003;24092;53.370;-6.588;2023-05-07T01:45:04;6;5;
38288;PMS5003;24092;53.370;-6.588;2023-05-07T01:47:32;9;8;
38288;PMS5003;24092;53.370;-6.588;2023-05-07T01:49:59;4;3;
38288;PMS5003;24092;53.370;-6.588;2023-05-07T01:52:27;5;4;
38288;PMS5003;24092;53.370;-6.588;2023-05-07T01:54:54;5;5;
38288;PMS5003;24092;53.370;-6.588;2023-05-07T01:57:21;7;5;
38288;PMS5003;24092;53.370;-6.588;2023-05-07T01:59:48;5;5;
38288;PMS5003;24092;53.370;-6.588;2023-05-07T02:02:15;6;5;
38288;PMS5003;24092;53.370;-6.588;2023-05-07T02:04:42;5;4;
38288;PMS5003;24092;53.370;-6.588;2023-05-07T02:07:09;6;5;
38288;PMS5003;24092;53.370;-6.588;2023-05-07T02:09:36;5;5;
38288;PMS5003;24092;53.370;-6.588;2023-05-07T02:12:03;7;5;
38288;PMS5003;24092;53.370;-6.588;2023-05-07T02:14:31;6;5;
38288;PMS5003;24092;53.370;-6.588;2023-05-07T02:16:58;6;6;
38288;PMS5003;24092;53.370;-6.588;2023-05-07T02:19:25;11;9;
38288;PMS5003;24092;53.370;-6.588;2023-05-07T02:21:53;6;6;
38288;PMS5003;24092;53.370;-6.588;2023-05-07T02:24:20;6;6;
38288;PMS5003;24092;53.370;-6.588;2023-05-07T02:26:47;7;7;
38288;PMS5003;24092;53.370;-6.588;2023-05-07T02:29:14;5;5;
38288;PMS5003;24092;53.370;-6.588;2023-05-07T02:31:41;6;5;
38288;PMS5003;24092;53.370;-6.588;2023-05-07T02:34:08;5;4;
38288;PMS5003;24092;53.370;-6.588;2023-05-07T02:36:35;4;4;
38288;PMS5003;24092;53.370;-6.588;2023-05-07T02:39:02;5;4;
38288;PMS5003;24092;53.370;-6.588;2023-05-07T02:41:30;5;4;
38288;PMS5003;24092;53.370;-6.588;2023-05-07T02:43:56;4;4;
38288;PMS5003;24092;53.370;-6.588;2023-05-07T02:46:23;7;5;
38288;PMS5003;24092;53.370;-6.588;2023-05-07T02:48:50;7;5;
38288;PMS5003;24092;53.370;-6.588;2023-05-07T02:51:19;8;7;
38288;PMS5003;24092;53.370;-6.588;2023-05-07T02:53:48;6;5;
38288;PMS5003;24092;53.370;-6.588;2023-05-07T02:56:15;8;6;
38288;PMS5003;24092;53.370;-6.588;2023-05-07T02:58:42;6;4;
38288;PMS5003;24092;53.370;-6.588;2023-05-07T03:01:09;5;5;
38288;PMS5003;24092;53.370;-6.588;2023-05-07T03:03:36;4;4;
38288;PMS5003;24092;53.370;-6.588;2023-05-07T03:06:03;6;4;
38288;PMS5003;24092;53.370;-6.588;2023-05-07T03:08:30;5;4;
38288;PMS5003;24092;53.370;-6.588;2023-05-07T03:10:57;6;5;
38288;PMS5003;24092;53.370;-6.588;2023-05-07T03:13:25;7;5;
38288;PMS5003;24092;53.370;-6.588;2023-05-07T03:15:52;6;6;
38288;PMS5003;24092;53.370;-6.588;2023-05-07T03:18:19;6;5;
38288;PMS5003;24092;53.370;-6.588;2023-05-07T03:20:47;5;3;
38288;PMS5003;24092;53.370;-6.588;2023-05-07T03:23:14;7;5;
38288;PMS5003;24092;53.370;-6.588;2023-05-07T03:25:41;5;5;
38288;PMS5003;24092;53.370;-6.588;2023-05-07T03:28:08;5;4;
38288;PMS5003;24092;53.370;-6.588;2023-05-07T03:30:35;3;3;
38288;PMS5003;24092;53.370;-6.588;2023-05-07T03:33:03;6;5;
38288;PMS5003;24092;53.370;-6.588;2023-05-07T03:35:30;9;8;
38288;PMS5003;24092;53.370;-6.588;2023-05-07T03:37:57;6;5;
38288;PMS5003;24092;53.370;-6.588;2023-05-07T03:40:24;4;4;
38288;PMS5003;24092;53.370;-6.588;2023-05-07T03:42:51;6;5;
38288;PMS5003;24092;53.370;-6.588;2023-05-07T03:45:18;4;4;
38288;PMS5003;24092;53.370;-6.588;2023-05-07T03:47:46;5;5;
38288;PMS5003;24092;53.370;-6.588;2023-05-07T03:50:13;5;4;
38288;PMS5003;24092;53.370;-6.588;2023-05-07T03:52:40;2;2;
38288;PMS5003;24092;53.370;-6.588;2023-05-07T03:55:07;5;4;
38288;PMS5003;24092;53.370;-6.588;2023-05-07T03:57:36;3;3;
38288;PMS5003;24092;53.370;-6.588;2023-05-07T04:00:04;6;5;
38288;PMS5003;24092;53.370;-6.588;2023-05-07T04:02:32;3;3;
38288;PMS5003;24092;53.370;-6.588;2023-05-07T04:05:00;1;1;
38288;PMS5003;24092;53.370;-6.588;2023-05-07T04:07:27;7;4;
38288;PMS5003;24092;53.370;-6.588;2023-05-07T04:09:54;3;3;
38288;PMS5003;24092;53.370;-6.588;2023-05-07T04:12:21;3;3;
38288;PMS5003;24092;53.370;-6.588;2023-05-07T04:14:48;3;3;
38288;PMS5003;24092;53.370;-6.588;2023-05-07T04:17:15;5;4;
38288;PMS5003;24092;53.370;-6.588;2023-05-07T04:19:42;4;3;
38288;PMS5003;24092;53.370;-6.588;2023-05-07T04:22:09;5;4;
38288;PMS5003;24092;53.370;-6.588;2023-05-07T04:24:37;3;3;
38288;PMS5003;24092;53.370;-6.588;2023-05-07T04:27:04;3;3;
38288;PMS5003;24092;53.370;-6.588;2023-05-07T04:29:31;5;3;
38288;PMS5003;24092;53.370;-6.588;2023-05-07T04:31:58;2;2;
38288;PMS5003;24092;53.370;-6.588;2023-05-07T04:34:25;2;2;
38288;PMS5003;24092;53.370;-6.588;2023-05-07T04:36:52;4;4;
38288;PMS5003;24092;53.370;-6.588;2023-05-07T04:39:19;2;2;
38288;PMS5003;24092;53.370;-6.588;2023-05-07T04:41:45;3;3;
38288;PMS5003;24092;53.370;-6.588;2023-05-07T04:44:13;2;2;
38288;PMS5003;24092;53.370;-6.588;2023-05-07T04:46:40;2;2;
38288;PMS5003;24092;53.370;-6.588;2023-05-07T04:49:07;2;2;
38288;PMS5003;24092;53.370;-6.588;2023-05-07T04:51:34;5;4;
38288;PMS5003;24092;53.370;-6.588;2023-05-07T04:54:01;4;3;
38288;PMS5003;24092;53.370;-6.588;2023-05-07T04:56:28;6;4;
38288;PMS5003;24092;53.370;-6.588;2023-05-07T04:58:56;5;4;
38288;PMS5003;24092;53.370;-6.588;2023-05-07T05:01:23;3;3;
38288;PMS5003;24092;53.370;-6.588;2023-05-07T05:03:50;6;6;
38288;PMS5003;24092;53.370;-6.588;2023-05-07T05:06:17;2;2;
38288;PMS5003;24092;53.370;-6.588;2023-05-07T05:08:44;4;3;
38288;PMS5003;24092;53.370;-6.588;2023-05-07T05:11:11;5;3;
38288;PMS5003;24092;53.370;-6.588;2023-05-07T05:13:38;3;3;
38288;PMS5003;24092;53.370;-6.588;2023-05-07T05:16:05;5;5;
38288;PMS5003;24092;53.370;-6.588;2023-05-07T05:18:33;6;3;
38288;PMS5003;24092;53.370;-6.588;2023-05-07T05:21:00;4;3;
38288;PMS5003;24092;53.370;-6.588;2023-05-07T05:23:28;5;4;
38288;PMS5003;24092;53.370;-6.588;2023-05-07T05:25:55;3;3;
38288;PMS5003;24092;53.370;-6.588;2023-05-07T05:28:22;4;4;
38288;PMS5003;24092;53.370;-6.588;2023-05-07T05:30:50;4;3;
38288;PMS5003;24092;53.370;-6.588;2023-05-07T05:33:17;5;5;
38288;PMS5003;24092;53.370;-6.588;2023-05-07T05:35:44;4;4;
38288;PMS5003;24092;53.370;-6.588;2023-05-07T05:38:11;6;4;
38288;PMS5003;24092;53.370;-6.588;2023-05-07T05:40:38;3;3;
38288;PMS5003;24092;53.370;-6.588;2023-05-07T05:43:05;6;4;
38288;PMS5003;24092;53.370;-6.588;2023-05-07T05:45:33;3;3;
38288;PMS5003;24092;53.370;-6.588;2023-05-07T05:48:00;4;3;
38288;PMS5003;24092;53.370;-6.588;2023-05-07T05:50:27;4;4;
38288;PMS5003;24092;53.370;-6.588;2023-05-07T05:52:54;6;6;
38288;PMS5003;24092;53.370;-6.588;2023-05-07T05:55:21;6;5;
38288;PMS5003;24092;53.370;-6.588;2023-05-07T05:57:48;3;3;
38288;PMS5003;24092;53.370;-6.588;2023-05-07T06:00:15;6;5;
38288;PMS5003;24092;53.370;-6.588;2023-05-07T06:02:43;7;7;
38288;PMS5003;24092;53.370;-6.588;2023-05-07T06:05:10;6;6;
38288;PMS5003;24092;53.370;-6.588;2023-05-07T06:07:37;4;3;
38288;PMS5003;24092;53.370;-6.588;2023-05-07T06:10:04;5;5;
38288;PMS5003;24092;53.370;-6.588;2023-05-07T06:12:32;3;3;
38288;PMS5003;24092;53.370;-6.588;2023-05-07T06:14:59;5;4;
38288;PMS5003;24092;53.370;-6.588;2023-05-07T06:17:26;6;6;
38288;PMS5003;24092;53.370;-6.588;2023-05-07T06:19:53;5;5;
38288;PMS5003;24092;53.370;-6.588;2023-05-07T06:22:20;5;4;
38288;PMS5003;24092;53.370;-6.588;2023-05-07T06:24:47;5;4;
38288;PMS5003;24092;53.370;-6.588;2023-05-07T06:27:14;4;3;
38288;PMS5003;24092;53.370;-6.588;2023-05-07T06:29:41;5;4;
38288;PMS5003;24092;53.370;-6.588;2023-05-07T06:32:08;3;3;
38288;PMS5003;24092;53.370;-6.588;2023-05-07T06:34:36;4;3;
38288;PMS5003;24092;53.370;-6.588;2023-05-07T06:37:04;4;3;
38288;PMS5003;24092;53.370;-6.588;2023-05-07T06:39:31;3;3;
38288;PMS5003;24092;53.370;-6.588;2023-05-07T06:41:59;3;3;
38288;PMS5003;24092;53.370;-6.588;2023-05-07T06:44:26;5;4;
38288;PMS5003;24092;53.370;-6.588;2023-05-07T06:46:53;10;8;
38288;PMS5003;24092;53.370;-6.588;2023-05-07T06:49:20;4;3;
38288;PMS5003;24092;53.370;-6.588;2023-05-07T06:51:47;4;4;
38288;PMS5003;24092;53.370;-6.588;2023-05-07T06:54:14;6;4;
38288;PMS5003;24092;53.370;-6.588;2023-05-07T06:56:42;3;3;
38288;PMS5003;24092;53.370;-6.588;2023-05-07T06:59:08;3;3;
38288;PMS5003;24092;53.370;-6.588;2023-05-07T07:01:35;3;3;
38288;PMS5003;24092;53.370;-6.588;2023-05-07T07:04:03;3;3;
38288;PMS5003;24092;53.370;-6.588;2023-05-07T07:06:30;3;2;
38288;PMS5003;24092;53.370;-6.588;2023-05-07T07:08:57;2;2;
38288;PMS5003;24092;53.370;-6.588;2023-05-07T07:11:24;4;3;
38288;PMS5003;24092;53.370;-6.588;2023-05-07T07:13:51;5;4;
38288;PMS5003;24092;53.370;-6.588;2023-05-07T07:16:18;4;3;
38288;PMS5003;24092;53.370;-6.588;2023-05-07T07:18:45;3;3;
38288;PMS5003;24092;53.370;-6.588;2023-05-07T07:21:12;5;3;
38288;PMS5003;24092;53.370;-6.588;2023-05-07T07:23:39;3;2;
38288;PMS5003;24092;53.370;-6.588;2023-05-07T07:26:06;3;3;
38288;PMS5003;24092;53.370;-6.588;2023-05-07T07:28:33;2;2;
38288;PMS5003;24092;53.370;-6.588;2023-05-07T07:30:59;2;2;
38288;PMS5003;24092;53.370;-6.588;2023-05-07T07:33:26;2;1;
38288;PMS5003;24092;53.370;-6.588;2023-05-07T07:35:55;3;2;
38288;PMS5003;24092;53.370;-6.588;2023-05-07T07:38:22;2;2;
38288;PMS5003;24092;53.370;-6.588;2023-05-07T07:40:49;2;2;
38288;PMS5003;24092;53.370;-6.588;2023-05-07T07:43:15;3;3;
38288;PMS5003;24092;53.370;-6.588;2023-05-07T07:47:58;1;1;
38288;PMS5003;24092;53.370;-6.588;2023-05-07T07:50:25;2;2;
38288;PMS5003;24092;53.370;-6.588;2023-05-07T07:52:52;2;1;
38288;PMS5003;24092;53.370;-6.588;2023-05-07T07:55:19;2;2;
38288;PMS5003;24092;53.370;-6.588;2023-05-07T07:57:46;5;3;
38288;PMS5003;24092;53.370;-6.588;2023-05-07T08:00:14;2;2;
38288;PMS5003;24092;53.370;-6.588;2023-05-07T08:02:42;3;3;
38288;PMS5003;24092;53.370;-6.588;2023-05-07T08:05:10;2;2;
38288;PMS5003;24092;53.370;-6.588;2023-05-07T08:07:36;4;2;
38288;PMS5003;24092;53.370;-6.588;2023-05-07T08:10:03;3;2;
38288;PMS5003;24092;53.370;-6.588;2023-05-07T08:12:31;1;1;
38288;PMS5003;24092;53.370;-6.588;2023-05-07T08:14:58;3;2;
38288;PMS5003;24092;53.370;-6.588;2023-05-07T08:17:25;2;1;
38288;PMS5003;24092;53.370;-6.588;2023-05-07T08:19:52;2;2;
38288;PMS5003;24092;53.370;-6.588;2023-05-07T08:22:20;2;2;
38288;PMS5003;24092;53.370;-6.588;2023-05-07T08:24:47;3;3;
38288;PMS5003;24092;53.370;-6.588;2023-05-07T08:27:14;2;2;
38288;PMS5003;24092;53.370;-6.588;2023-05-07T08:29:40;2;2;
38288;PMS5003;24092;53.370;-6.588;2023-05-07T08:32:07;2;2;
38288;PMS5003;24092;53.370;-6.588;2023-05-07T08:34:34;2;2;
38288;PMS5003;24092;53.370;-6.588;2023-05-07T08:37:01;2;2;
38288;PMS5003;24092;53.370;-6.588;2023-05-07T08:39:28;3;2;
38288;PMS5003;24092;53.370;-6.588;2023-05-07T08:41:55;3;3;
38288;PMS5003;24092;53.370;-6.588;2023-05-07T08:44:23;4;3;
38288;PMS5003;24092;53.370;-6.588;2023-05-07T08:46:53;2;2;
38288;PMS5003;24092;53.370;-6.588;2023-05-07T08:49:23;3;3;
38288;PMS5003;24092;53.370;-6.588;2023-05-07T08:51:50;3;3;
38288;PMS5003;24092;53.370;-6.588;2023-05-07T08:54:18;3;3;
38288;PMS5003;24092;53.370;-6.588;2023-05-07T08:56:47;4;3;
38288;PMS5003;24092;53.370;-6.588;2023-05-07T08:59:14;3;3;
38288;PMS5003;24092;53.370;-6.588;2023-05-07T09:01:40;4;4;
38288;PMS5003;24092;53.370;-6.588;2023-05-07T09:04:07;4;4;
38288;PMS5003;24092;53.370;-6.588;2023-05-07T09:06:34;4;3;
38288;PMS5003;24092;53.370;-6.588;2023-05-07T09:09:01;4;3;
38288;PMS5003;24092;53.370;-6.588;2023-05-07T09:11:28;3;3;
38288;PMS5003;24092;53.370;-6.588;2023-05-07T09:13:57;3;3;
38288;PMS5003;24092;53.370;-6.588;2023-05-07T09:16:24;2;2;
38288;PMS5003;24092;53.370;-6.588;2023-05-07T09:18:52;3;3;
38288;PMS5003;24092;53.370;-6.588;2023-05-07T09:21:20;4;4;
38288;PMS5003;24092;53.370;-6.588;2023-05-07T09:23:48;3;2;
38288;PMS5003;24092;53.370;-6.588;2023-05-07T09:26:17;2;2;
38288;PMS5003;24092;53.370;-6.588;2023-05-07T09:28:47;4;3;
38288;PMS5003;24092;53.370;-6.588;2023-05-07T09:31:15;3;2;
38288;PMS5003;24092;53.370;-6.588;2023-05-07T09:33:43;3;3;
38288;PMS5003;24092;53.370;-6.588;2023-05-07T09:36:10;2;2;
38288;PMS5003;24092;53.370;-6.588;2023-05-07T09:38:37;3;3;
38288;PMS5003;24092;53.370;-6.588;2023-05-07T09:41:05;3;2;
38288;PMS5003;24092;53.370;-6.588;2023-05-07T09:43:33;2;2;
38288;PMS5003;24092;53.370;-6.588;2023-05-07T09:46:03;1;1;
38288;PMS5003;24092;53.370;-6.588;2023-05-07T09:48:34;1;1;
38288;PMS5003;24092;53.370;-6.588;2023-05-07T09:51:05;2;1;
38288;PMS5003;24092;53.370;-6.588;2023-05-07T09:53:42;2;2;
38288;PMS5003;24092;53.370;-6.588;2023-05-07T09:56:12;3;2;
38288;PMS5003;24092;53.370;-6.588;2023-05-07T09:58:40;2;2;
38288;PMS5003;24092;53.370;-6.588;2023-05-07T10:01:08;1;1;
38288;PMS5003;24092;53.370;-6.588;2023-05-07T10:03:37;2;1;
38288;PMS5003;24092;53.370;-6.588;2023-05-07T10:06:07;5;4;
38288;PMS5003;24092;53.370;-6.588;2023-05-07T10:08:35;2;1;
38288;PMS5003;24092;53.370;-6.588;2023-05-07T10:11:03;2;2;
38288;PMS5003;24092;53.370;-6.588;2023-05-07T10:13:31;2;1;
38288;PMS5003;24092;53.370;-6.588;2023-05-07T10:16:00;1;1;
38288;PMS5003;24092;53.370;-6.588;2023-05-07T10:18:27;0;0;
38288;PMS5003;24092;53.370;-6.588;2023-05-07T10:20:57;1;1;
38288;PMS5003;24092;53.370;-6.588;2023-05-07T10:23:29;1;1;
38288;PMS5003;24092;53.370;-6.588;2023-05-07T10:25:58;2;2;
38288;PMS5003;24092;53.370;-6.588;2023-05-07T10:28:29;1;1;
38288;PMS5003;24092;53.370;-6.588;2023-05-07T10:31:05;2;1;
38288;PMS5003;24092;53.370;-6.588;2023-05-07T10:33:41;1;1;
38288;PMS5003;24092;53.370;-6.588;2023-05-07T10:36:11;2;2;
38288;PMS5003;24092;53.370;-6.588;2023-05-07T10:38:39;2;1;
38288;PMS5003;24092;53.370;-6.588;2023-05-07T10:41:06;1;1;
38288;PMS5003;24092;53.370;-6.588;2023-05-07T10:43:42;2;1;
38288;PMS5003;24092;53.370;-6.588;2023-05-07T10:46:11;0;0;
38288;PMS5003;24092;53.370;-6.588;2023-05-07T10:49:12;0;0;
38288;PMS5003;24092;53.370;-6.588;2023-05-07T10:51:39;2;2;
38288;PMS5003;24092;53.370;-6.588;2023-05-07T10:54:22;1;1;
38288;PMS5003;24092;53.370;-6.588;2023-05-07T10:56:49;1;1;
38288;PMS5003;24092;53.370;-6.588;2023-05-07T10:59:33;2;2;
38288;PMS5003;24092;53.370;-6.588;2023-05-07T11:02:02;2;2;
38288;PMS5003;24092;53.370;-6.588;2023-05-07T11:04:30;3;3;
38288;PMS5003;24092;53.370;-6.588;2023-05-07T11:07:30;1;1;
38288;PMS5003;24092;53.370;-6.588;2023-05-07T11:09:58;3;1;
38288;PMS5003;24092;53.370;-6.588;2023-05-07T11:12:59;2;1;
38288;PMS5003;24092;53.370;-6.588;2023-05-07T11:15:35;1;1;
38288;PMS5003;24092;53.370;-6.588;2023-05-07T11:18:03;0;0;
38288;PMS5003;24092;53.370;-6.588;2023-05-07T11:21:03;2;2;
38288;PMS5003;24092;53.370;-6.588;2023-05-07T11:24:06;0;0;
38288;PMS5003;24092;53.370;-6.588;2023-05-07T11:26:42;0;0;
38288;PMS5003;24092;53.370;-6.588;2023-05-07T11:29:12;1;1;
38288;PMS5003;24092;53.370;-6.588;2023-05-07T11:31:40;2;1;
38288;PMS5003;24092;53.370;-6.588;2023-05-07T11:34:07;1;1;
38288;PMS5003;24092;53.370;-6.588;2023-05-07T11:36:35;1;1;
38288;PMS5003;24092;53.370;-6.588;2023-05-07T11:39:22;2;2;
38288;PMS5003;24092;53.370;-6.588;2023-05-07T11:41:50;2;2;
38288;PMS5003;24092;53.370;-6.588;2023-05-07T11:44:17;1;1;
38288;PMS5003;24092;53.370;-6.588;2023-05-07T11:46:44;2;2;
38288;PMS5003;24092;53.370;-6.588;2023-05-07T11:49:11;1;1;
38288;PMS5003;24092;53.370;-6.588;2023-05-07T11:51:39;1;1;
38288;PMS5003;24092;53.370;-6.588;2023-05-07T11:54:07;2;2;
38288;PMS5003;24092;53.370;-6.588;2023-05-07T11:56:35;1;1;
38288;PMS5003;24092;53.370;-6.588;2023-05-07T11:59:02;1;1;
38288;PMS5003;24092;53.370;-6.588;2023-05-07T12:01:28;2;1;
38288;PMS5003;24092;53.370;-6.588;2023-05-07T12:03:55;0;0;
38288;PMS5003;24092;53.370;-6.588;2023-05-07T12:06:22;2;2;
38288;PMS5003;24092;53.370;-6.588;2023-05-07T12:08:49;2;1;
38288;PMS5003;24092;53.370;-6.588;2023-05-07T12:11:16;1;1;
38288;PMS5003;24092;53.370;-6.588;2023-05-07T12:13:49;1;1;
38288;PMS5003;24092;53.370;-6.588;2023-05-07T12:16:16;3;3;
38288;PMS5003;24092;53.370;-6.588;2023-05-07T12:18:44;3;2;
38288;PMS5003;24092;53.370;-6.588;2023-05-07T12:21:12;2;2;
38288;PMS5003;24092;53.370;-6.588;2023-05-07T12:23:39;1;1;
38288;PMS5003;24092;53.370;-6.588;2023-05-07T12:26:07;0;0;
38288;PMS5003;24092;53.370;-6.588;2023-05-07T12:28:36;2;2;
38288;PMS5003;24092;53.370;-6.588;2023-05-07T12:31:05;2;2;
38288;PMS5003;24092;53.370;-6.588;2023-05-07T12:33:32;1;1;
38288;PMS5003;24092;53.370;-6.588;2023-05-07T12:36:03;1;1;
38288;PMS5003;24092;53.370;-6.588;2023-05-07T12:38:34;1;1;
38288;PMS5003;24092;53.370;-6.588;2023-05-07T12:41:02;0;0;
38288;PMS5003;24092;53.370;-6.588;2023-05-07T12:43:30;1;1;
38288;PMS5003;24092;53.370;-6.588;2023-05-07T12:45:59;2;2;
38288;PMS5003;24092;53.370;-6.588;2023-05-07T12:48:27;1;0;
38288;PMS5003;24092;53.370;-6.588;2023-05-07T12:50:54;3;2;
38288;PMS5003;24092;53.370;-6.588;2023-05-07T12:53:23;2;1;
38288;PMS5003;24092;53.370;-6.588;2023-05-07T12:55:52;2;2;
38288;PMS5003;24092;53.370;-6.588;2023-05-07T12:58:21;2;2;
38288;PMS5003;24092;53.370;-6.588;2023-05-07T13:00:51;2;2;
38288;PMS5003;24092;53.370;-6.588;2023-05-07T13:03:23;2;2;
38288;PMS5003;24092;53.370;-6.588;2023-05-07T13:05:52;3;2;
38288;PMS5003;24092;53.370;-6.588;2023-05-07T13:08:24;1;1;
38288;PMS5003;24092;53.370;-6.588;2023-05-07T13:10:53;1;1;
38288;PMS5003;24092;53.370;-6.588;2023-05-07T13:13:21;2;2;
38288;PMS5003;24092;53.370;-6.588;2023-05-07T13:15:48;2;1;
38288;PMS5003;24092;53.370;-6.588;2023-05-07T13:18:16;0;0;
38288;PMS5003;24092;53.370;-6.588;2023-05-07T13:20:43;1;1;
38288;PMS5003;24092;53.370;-6.588;2023-05-07T13:23:11;2;1;
38288;PMS5003;24092;53.370;-6.588;2023-05-07T13:25:38;2;2;
38288;PMS5003;24092;53.370;-6.588;2023-05-07T13:28:04;1;1;
38288;PMS5003;24092;53.370;-6.588;2023-05-07T13:30:31;0;0;
38288;PMS5003;24092;53.370;-6.588;2023-05-07T13:32:58;2;2;
38288;PMS5003;24092;53.370;-6.588;2023-05-07T13:35:25;1;1;
38288;PMS5003;24092;53.370;-6.588;2023-05-07T13:37:53;2;2;
38288;PMS5003;24092;53.370;-6.588;2023-05-07T13:40:20;2;2;
38288;PMS5003;24092;53.370;-6.588;2023-05-07T13:42:47;2;2;
38288;PMS5003;24092;53.370;-6.588;2023-05-07T13:45:15;1;1;
38288;PMS5003;24092;53.370;-6.588;2023-05-07T13:47:43;1;1;
38288;PMS5003;24092;53.370;-6.588;2023-05-07T13:50:10;0;0;
38288;PMS5003;24092;53.370;-6.588;2023-05-07T13:52:37;0;0;
38288;PMS5003;24092;53.370;-6.588;2023-05-07T13:55:07;4;2;
38288;PMS5003;24092;53.370;-6.588;2023-05-07T13:57:34;1;1;
38288;PMS5003;24092;53.370;-6.588;2023-05-07T14:00:02;2;2;
38288;PMS5003;24092;53.370;-6.588;2023-05-07T14:02:31;0;0;
38288;PMS5003;24092;53.370;-6.588;2023-05-07T14:04:58;0;0;
38288;PMS5003;24092;53.370;-6.588;2023-05-07T14:07:25;2;2;
38288;PMS5003;24092;53.370;-6.588;2023-05-07T14:09:52;1;1;
38288;PMS5003;24092;53.370;-6.588;2023-05-07T14:12:20;2;2;
38288;PMS5003;24092;53.370;-6.588;2023-05-07T14:14:47;1;1;
38288;PMS5003;24092;53.370;-6.588;2023-05-07T14:17:13;2;1;
38288;PMS5003;24092;53.370;-6.588;2023-05-07T14:19:40;1;1;
38288;PMS5003;24092;53.370;-6.588;2023-05-07T14:22:08;1;1;
38288;PMS5003;24092;53.370;-6.588;2023-05-07T14:24:35;1;1;
38288;PMS5003;24092;53.370;-6.588;2023-05-07T14:27:02;0;0;
38288;PMS5003;24092;53.370;-6.588;2023-05-07T14:29:29;2;2;
38288;PMS5003;24092;53.370;-6.588;2023-05-07T14:31:57;1;1;
38288;PMS5003;24092;53.370;-6.588;2023-05-07T14:34:25;2;2;
38288;PMS5003;24092;53.370;-6.588;2023-05-07T14:36:51;2;2;
38288;PMS5003;24092;53.370;-6.588;2023-05-07T14:39:18;2;2;
38288;PMS5003;24092;53.370;-6.588;2023-05-07T14:41:45;1;1;
38288;PMS5003;24092;53.370;-6.588;2023-05-07T14:44:13;1;1;
38288;PMS5003;24092;53.370;-6.588;2023-05-07T14:46:40;2;2;
38288;PMS5003;24092;53.370;-6.588;2023-05-07T14:49:06;1;1;
38288;PMS5003;24092;53.370;-6.588;2023-05-07T14:51:33;2;1;
38288;PMS5003;24092;53.370;-6.588;2023-05-07T14:54:00;2;2;
38288;PMS5003;24092;53.370;-6.588;2023-05-07T14:56:26;1;0;
38288;PMS5003;24092;53.370;-6.588;2023-05-07T14:58:54;1;1;
38288;PMS5003;24092;53.370;-6.588;2023-05-07T15:01:21;4;4;
38288;PMS5003;24092;53.370;-6.588;2023-05-07T15:03:48;2;2;
38288;PMS5003;24092;53.370;-6.588;2023-05-07T15:06:15;2;2;
38288;PMS5003;24092;53.370;-6.588;2023-05-07T15:08:42;3;3;
38288;PMS5003;24092;53.370;-6.588;2023-05-07T15:11:09;1;1;
38288;PMS5003;24092;53.370;-6.588;2023-05-07T15:13:35;1;0;
38288;PMS5003;24092;53.370;-6.588;2023-05-07T15:16:02;2;2;
38288;PMS5003;24092;53.370;-6.588;2023-05-07T15:18:30;3;2;
38288;PMS5003;24092;53.370;-6.588;2023-05-07T15:20:57;5;4;
38288;PMS5003;24092;53.370;-6.588;2023-05-07T15:23:25;2;1;
38288;PMS5003;24092;53.370;-6.588;2023-05-07T15:25:52;3;2;
38288;PMS5003;24092;53.370;-6.588;2023-05-07T15:28:19;3;2;
38288;PMS5003;24092;53.370;-6.588;2023-05-07T15:30:46;1;1;
38288;PMS5003;24092;53.370;-6.588;2023-05-07T15:33:14;4;2;
38288;PMS5003;24092;53.370;-6.588;2023-05-07T15:35:40;3;2;
38288;PMS5003;24092;53.370;-6.588;2023-05-07T15:38:07;1;1;
38288;PMS5003;24092;53.370;-6.588;2023-05-07T15:40:34;2;2;
38288;PMS5003;24092;53.370;-6.588;2023-05-07T15:43:01;2;2;
38288;PMS5003;24092;53.370;-6.588;2023-05-07T15:45:28;3;2;
38288;PMS5003;24092;53.370;-6.588;2023-05-07T15:47:55;1;1;
38288;PMS5003;24092;53.370;-6.588;2023-05-07T15:50:22;2;1;
38288;PMS5003;24092;53.370;-6.588;2023-05-07T15:52:49;3;2;
38288;PMS5003;24092;53.370;-6.588;2023-05-07T15:55:15;2;1;
38288;PMS5003;24092;53.370;-6.588;2023-05-07T15:57:42;2;1;
38288;PMS5003;24092;53.370;-6.588;2023-05-07T16:00:10;2;2;
38288;PMS5003;24092;53.370;-6.588;2023-05-07T16:02:38;3;1;
38288;PMS5003;24092;53.370;-6.588;2023-05-07T16:05:06;1;1;
38288;PMS5003;24092;53.370;-6.588;2023-05-07T16:07:34;2;1;
38288;PMS5003;24092;53.370;-6.588;2023-05-07T16:10:01;1;1;
38288;PMS5003;24092;53.370;-6.588;2023-05-07T16:12:29;3;3;
38288;PMS5003;24092;53.370;-6.588;2023-05-07T16:14:57;1;1;
38288;PMS5003;24092;53.370;-6.588;2023-05-07T16:17:24;3;3;
38288;PMS5003;24092;53.370;-6.588;2023-05-07T16:19:51;1;1;
38288;PMS5003;24092;53.370;-6.588;2023-05-07T16:22:19;2;1;
38288;PMS5003;24092;53.370;-6.588;2023-05-07T16:24:46;3;2;
38288;PMS5003;24092;53.370;-6.588;2023-05-07T16:27:12;1;1;
38288;PMS5003;24092;53.370;-6.588;2023-05-07T16:29:39;2;2;
38288;PMS5003;24092;53.370;-6.588;2023-05-07T16:32:06;2;1;
38288;PMS5003;24092;53.370;-6.588;2023-05-07T16:34:33;2;2;
38288;PMS5003;24092;53.370;-6.588;2023-05-07T16:37:00;2;2;
38288;PMS5003;24092;53.370;-6.588;2023-05-07T16:39:29;0;0;
38288;PMS5003;24092;53.370;-6.588;2023-05-07T16:41:56;2;0;